createdAt,value
2023-04-18T00:00:12.209Z,10.19
2023-04-18T00:02:39.935Z,9.98
2023-04-18T00:05:07.800Z,9.99
2023-04-18T00:07:35.503Z,9.84
2023-04-18T00:10:03.535Z,9.89
2023-04-18T00:12:30.245Z,9.71
2023-04-18T00:14:58.763Z,9.59
2023-04-18T00:17:27.700Z,9.57
2023-04-18T00:19:54.539Z,9.71
2023-04-18T00:22:22.561Z,9.69
2023-04-18T00:25:36.057Z,9.67
2023-04-18T00:28:02.784Z,9.50
2023-04-18T00:30:29.456Z,9.78
2023-04-18T00:32:56.165Z,9.78
2023-04-18T00:35:22.891Z,9.84
2023-04-18T00:37:49.498Z,9.97
2023-04-18T00:40:16.121Z,9.95
2023-04-18T00:42:42.781Z,9.91
2023-04-18T00:45:09.896Z,9.73
2023-04-18T00:47:36.566Z,9.71
2023-04-18T00:50:03.410Z,9.72
2023-04-18T00:52:30.077Z,9.82
2023-04-18T00:54:57.616Z,9.86
2023-04-18T00:57:24.526Z,9.93
2023-04-18T00:59:51.131Z,9.86
2023-04-18T01:02:18.055Z,9.82
2023-04-18T01:04:44.843Z,9.71
2023-04-18T01:07:11.728Z,10.09
2023-04-18T01:09:38.395Z,9.83
2023-04-18T01:12:05.452Z,9.74
2023-04-18T01:14:32.180Z,9.72
2023-04-18T01:16:59.077Z,9.78
2023-04-18T01:19:25.828Z,9.77
2023-04-18T01:21:54.260Z,9.56
2023-04-18T01:24:21.688Z,9.65
2023-04-18T01:26:48.387Z,9.70
2023-04-18T01:29:15.347Z,9.97
2023-04-18T01:31:42.099Z,9.84
2023-04-18T01:34:08.914Z,9.84
2023-04-18T01:36:36.045Z,9.69
2023-04-18T01:39:02.892Z,9.83
2023-04-18T01:41:32.486Z,10.03
2023-04-18T01:43:59.553Z,9.80
2023-04-18T01:46:26.289Z,9.74
2023-04-18T01:48:53.155Z,9.74
2023-04-18T01:51:19.874Z,9.68
2023-04-18T01:53:46.513Z,9.65
2023-04-18T01:56:13.234Z,9.67
2023-04-18T01:58:41.629Z,9.89
2023-04-18T02:01:08.579Z,9.82
2023-04-18T02:03:35.453Z,9.77
2023-04-18T02:06:03.666Z,9.70
2023-04-18T02:08:32.990Z,9.86
2023-04-18T02:11:01.345Z,9.87
2023-04-18T02:13:28.222Z,9.67
2023-04-18T02:15:54.860Z,9.94
2023-04-18T02:18:24.748Z,9.76
2023-04-18T02:20:52.018Z,9.88
2023-04-18T02:23:19.002Z,9.83
2023-04-18T02:25:45.836Z,9.66
2023-04-18T02:28:12.459Z,9.76
2023-04-18T02:30:39.155Z,9.79
2023-04-18T02:33:05.887Z,9.82
2023-04-18T02:35:32.495Z,9.66
2023-04-18T02:37:59.218Z,9.59
2023-04-18T02:40:25.849Z,9.64
2023-04-18T02:42:52.478Z,9.70
2023-04-18T02:45:19.212Z,9.86
2023-04-18T02:47:54.751Z,9.93
2023-04-18T02:50:22.716Z,9.80
2023-04-18T02:52:49.361Z,10.10
2023-04-18T02:55:16.223Z,9.90
2023-04-18T02:57:43.157Z,9.91
2023-04-18T03:00:10.383Z,9.99
2023-04-18T03:02:37.220Z,9.92
2023-04-18T03:05:04.282Z,9.72
2023-04-18T03:07:31.100Z,9.68
2023-04-18T03:09:58.009Z,9.71
2023-04-18T03:12:24.737Z,9.57
2023-04-18T03:14:51.453Z,9.75
2023-04-18T03:17:18.587Z,9.83
2023-04-18T03:19:46.487Z,9.94
2023-04-18T03:22:13.748Z,9.72
2023-04-18T03:24:40.549Z,9.77
2023-04-18T03:27:07.226Z,9.74
2023-04-18T03:29:34.184Z,9.49
2023-04-18T03:32:00.941Z,9.72
2023-04-18T03:34:27.681Z,9.48
2023-04-18T03:36:54.375Z,9.65
2023-04-18T03:39:21.020Z,9.48
2023-04-18T03:41:47.639Z,9.42
2023-04-18T03:44:14.657Z,9.53
2023-04-18T03:46:41.696Z,9.56
2023-04-18T03:49:08.650Z,9.53
2023-04-18T03:51:43.513Z,9.49
2023-04-18T03:54:10.162Z,9.46
2023-04-18T03:56:36.838Z,9.58
2023-04-18T03:59:03.512Z,9.43
2023-04-18T04:01:30.232Z,9.52
2023-04-18T04:03:56.973Z,9.30
2023-04-18T04:06:24.151Z,9.53
2023-04-18T04:08:50.786Z,9.44
2023-04-18T04:11:17.653Z,9.47
2023-04-18T04:13:44.275Z,9.58
2023-04-18T04:16:10.962Z,9.41
2023-04-18T04:18:37.624Z,9.47
2023-04-18T04:21:05.341Z,9.55
2023-04-18T04:23:33.133Z,9.51
2023-04-18T04:26:03.314Z,9.51
2023-04-18T04:28:31.120Z,9.35
2023-04-18T04:30:57.927Z,9.21
2023-04-18T04:33:28.814Z,9.40
2023-04-18T04:35:55.803Z,9.44
2023-04-18T04:38:25.187Z,9.48
2023-04-18T04:40:52.842Z,9.54
2023-04-18T04:43:20.675Z,9.53
2023-04-18T04:45:51.741Z,9.62
2023-04-18T04:48:22.349Z,9.59
2023-04-18T04:50:53.320Z,9.60
2023-04-18T04:53:19.929Z,9.49
2023-04-18T04:55:46.526Z,9.76
2023-04-18T04:58:13.229Z,9.80
2023-04-18T05:00:39.937Z,9.89
2023-04-18T05:03:08.342Z,9.83
2023-04-18T05:05:35.164Z,9.83
2023-04-18T05:08:02.127Z,9.99
2023-04-18T05:10:29.265Z,10.07
2023-04-18T05:12:56.410Z,10.36
2023-04-18T05:15:23.200Z,10.48
2023-04-18T05:17:49.848Z,10.30
2023-04-18T05:20:16.562Z,10.31
2023-04-18T05:22:43.166Z,10.16
2023-04-18T05:25:10.353Z,10.30
2023-04-18T05:27:36.951Z,10.24
2023-04-18T05:30:03.722Z,10.26
2023-04-18T05:32:30.382Z,10.22
2023-04-18T05:34:57.100Z,10.11
2023-04-18T05:37:23.754Z,10.40
2023-04-18T05:39:50.542Z,10.24
2023-04-18T05:42:17.192Z,10.30
2023-04-18T05:44:43.807Z,10.44
2023-04-18T05:47:10.605Z,10.39
2023-04-18T05:49:37.267Z,10.43
2023-04-18T05:52:04.135Z,10.52
2023-04-18T05:54:30.848Z,10.54
2023-04-18T05:56:57.546Z,10.72
2023-04-18T05:59:24.554Z,10.58
2023-04-18T06:01:51.484Z,10.35
2023-04-18T06:04:19.672Z,10.48
2023-04-18T06:06:46.894Z,10.44
2023-04-18T06:09:13.755Z,10.44
2023-04-18T06:11:40.461Z,10.59
2023-04-18T06:14:07.869Z,10.57
2023-04-18T06:16:36.492Z,10.59
2023-04-18T06:19:03.676Z,10.84
2023-04-18T06:21:30.410Z,10.83
2023-04-18T06:23:57.351Z,10.51
2023-04-18T06:26:24.613Z,10.80
2023-04-18T06:28:51.331Z,10.92
2023-04-18T06:31:18.057Z,10.84
2023-04-18T06:33:44.673Z,10.75
2023-04-18T06:36:11.368Z,10.71
2023-04-18T06:38:38.046Z,10.88
2023-04-18T06:41:04.822Z,10.70
2023-04-18T06:43:31.630Z,10.74
2023-04-18T06:45:58.982Z,10.60
2023-04-18T06:48:25.682Z,10.56
2023-04-18T06:50:52.422Z,10.68
2023-04-18T06:53:19.068Z,10.60
2023-04-18T06:55:45.846Z,10.81
2023-04-18T06:58:13.907Z,10.88
2023-04-18T07:00:40.682Z,10.97
2023-04-18T07:03:11.329Z,10.76
2023-04-18T07:05:39.089Z,10.76
2023-04-18T07:08:06.074Z,10.64
2023-04-18T07:10:32.777Z,10.53
2023-04-18T07:12:59.545Z,10.65
2023-04-18T07:15:26.155Z,10.83
2023-04-18T07:17:53.011Z,10.97
2023-04-18T07:20:19.699Z,10.97
2023-04-18T07:22:48.078Z,11.20
2023-04-18T07:25:14.865Z,11.34
2023-04-18T07:27:41.481Z,11.21
2023-04-18T07:30:08.867Z,11.38
2023-04-18T07:32:35.562Z,11.43
2023-04-18T07:35:03.427Z,11.68
2023-04-18T07:37:30.082Z,11.66
2023-04-18T07:39:56.725Z,11.72
2023-04-18T07:42:23.360Z,11.95
2023-04-18T07:44:50.066Z,12.03
2023-04-18T07:47:16.747Z,12.01
2023-04-18T07:49:43.625Z,12.34
2023-04-18T07:52:10.773Z,12.14
2023-04-18T07:54:37.489Z,12.25
2023-04-18T07:57:04.200Z,12.19
2023-04-18T07:59:32.226Z,12.43
2023-04-18T08:01:58.942Z,12.58
2023-04-18T08:04:28.220Z,12.37
2023-04-18T08:06:56.582Z,12.24
2023-04-18T08:09:23.264Z,12.04
2023-04-18T08:11:49.951Z,11.98
2023-04-18T08:14:16.653Z,12.00
2023-04-18T08:16:43.478Z,12.01
2023-04-18T08:19:10.377Z,11.91
2023-04-18T08:21:37.009Z,11.75
2023-04-18T08:24:03.667Z,11.83
2023-04-18T08:26:30.337Z,11.96
2023-04-18T08:28:57.151Z,11.86
2023-04-18T08:31:23.941Z,11.79
2023-04-18T08:33:50.776Z,12.16
2023-04-18T08:36:17.557Z,12.32
2023-04-18T08:38:44.210Z,12.02
2023-04-18T08:41:10.897Z,12.06
2023-04-18T08:43:37.847Z,12.11
2023-04-18T08:46:04.745Z,12.02
2023-04-18T08:48:31.504Z,11.72
2023-04-18T08:50:58.794Z,11.67
2023-04-18T08:53:26.691Z,11.57
2023-04-18T08:55:57.261Z,11.46
2023-04-18T08:58:25.536Z,11.30
2023-04-18T09:00:55.344Z,11.37
2023-04-18T09:03:41.040Z,11.28
2023-04-18T09:06:12.495Z,11.60
2023-04-18T09:08:41.331Z,12.02
2023-04-18T09:11:35.733Z,12.04
2023-04-18T09:14:02.641Z,12.09
2023-04-18T09:16:29.788Z,12.12
2023-04-18T09:19:12.654Z,12.27
2023-04-18T09:21:40.919Z,12.32
2023-04-18T09:24:24.884Z,12.20
2023-04-18T09:26:53.841Z,12.32
2023-04-18T09:29:23.567Z,12.18
2023-04-18T09:32:01.034Z,12.47
2023-04-18T09:34:28.639Z,12.46
2023-04-18T09:37:11.857Z,12.32
2023-04-18T09:39:39.560Z,12.67
2023-04-18T09:42:06.403Z,12.75
2023-04-18T09:44:33.160Z,12.66
2023-04-18T09:47:00.720Z,12.61
2023-04-18T09:49:27.389Z,12.43
2023-04-18T09:51:54.818Z,12.26
2023-04-18T09:54:24.056Z,12.75
2023-04-18T09:56:51.893Z,12.69
2023-04-18T09:59:32.937Z,12.93
2023-04-18T10:01:59.887Z,13.28
2023-04-18T10:04:26.906Z,13.65
2023-04-18T10:06:53.606Z,13.81
2023-04-18T10:09:20.324Z,13.92
2023-04-18T10:11:46.889Z,13.74
2023-04-18T10:14:13.773Z,13.90
2023-04-18T10:16:40.898Z,13.73
2023-04-18T10:19:42.009Z,14.46
2023-04-18T10:22:08.724Z,14.74
2023-04-18T10:24:54.048Z,14.93
2023-04-18T10:27:48.854Z,15.23
2023-04-18T10:30:16.682Z,15.78
2023-04-18T10:32:43.400Z,16.15
2023-04-18T10:35:10.872Z,16.26
2023-04-18T10:37:50.751Z,16.33
2023-04-18T10:40:17.818Z,16.10
2023-04-18T10:42:47.405Z,16.38
2023-04-18T10:45:21.177Z,16.82
2023-04-18T10:47:48.066Z,16.61
2023-04-18T10:50:14.956Z,16.72
2023-04-18T10:52:41.840Z,17.48
2023-04-18T10:55:09.616Z,17.57
2023-04-18T10:57:44.345Z,17.90
2023-04-18T11:00:13.848Z,17.47
2023-04-18T11:02:41.244Z,17.01
2023-04-18T11:05:08.528Z,16.52
2023-04-18T11:07:38.608Z,16.85
2023-04-18T11:10:06.258Z,16.38
2023-04-18T11:12:34.524Z,16.71
2023-04-18T11:15:04.188Z,16.68
2023-04-18T11:17:36.086Z,16.95
2023-04-18T11:20:11.338Z,17.23
2023-04-18T11:22:47.826Z,16.82
2023-04-18T11:25:18.761Z,17.02
2023-04-18T11:27:47.669Z,16.63
2023-04-18T11:30:14.882Z,16.27
2023-04-18T11:32:41.688Z,15.90
2023-04-18T11:35:09.313Z,15.91
2023-04-18T11:37:36.797Z,15.76
2023-04-18T11:40:08.386Z,15.81
2023-04-18T11:42:35.532Z,15.84
2023-04-18T11:45:02.652Z,15.86
2023-04-18T11:47:30.217Z,15.80
2023-04-18T11:49:58.509Z,16.00
2023-04-18T11:52:26.849Z,16.38
2023-04-18T11:54:53.524Z,15.99
2023-04-18T11:57:21.336Z,15.68
2023-04-18T12:00:00.231Z,15.71
2023-04-18T12:02:38.272Z,15.59
2023-04-18T12:05:05.680Z,15.78
2023-04-18T12:07:37.355Z,15.94
2023-04-18T12:10:05.304Z,16.11
2023-04-18T12:12:32.093Z,16.52
2023-04-18T12:15:03.528Z,16.67
2023-04-18T12:17:30.713Z,16.55
2023-04-18T12:20:02.199Z,17.08
2023-04-18T12:22:38.376Z,17.81
2023-04-18T12:25:27.299Z,17.77
2023-04-18T12:28:00.261Z,17.65
2023-04-18T12:30:26.896Z,18.16
2023-04-18T12:32:57.879Z,17.29
2023-04-18T12:35:24.844Z,16.68
2023-04-18T12:37:52.624Z,16.81
2023-04-18T12:40:20.023Z,16.41
2023-04-18T12:42:47.004Z,16.79
2023-04-18T12:45:14.170Z,16.16
2023-04-18T12:47:41.481Z,16.21
2023-04-18T12:50:11.240Z,16.02
2023-04-18T12:52:39.633Z,15.79
2023-04-18T12:55:09.642Z,15.62
2023-04-18T12:57:36.377Z,15.98
2023-04-18T13:00:13.808Z,15.98
2023-04-18T13:02:42.195Z,15.50
2023-04-18T13:05:10.681Z,15.72
2023-04-18T13:07:38.034Z,15.99
2023-04-18T13:10:05.218Z,15.98
2023-04-18T13:12:31.886Z,16.07
2023-04-18T13:14:58.563Z,15.83
2023-04-18T13:17:25.519Z,15.56
2023-04-18T13:19:52.259Z,16.01
2023-04-18T13:22:20.071Z,16.15
2023-04-18T13:24:47.092Z,16.00
2023-04-18T13:27:14.479Z,15.50
2023-04-18T13:29:41.806Z,15.16
2023-04-18T13:32:08.898Z,15.14
2023-04-18T13:34:37.983Z,15.37
2023-04-18T13:37:04.669Z,15.82
2023-04-18T13:39:32.209Z,15.89
2023-04-18T13:41:59.016Z,15.63
2023-04-18T13:44:26.027Z,15.73
2023-04-18T13:46:52.945Z,15.67
2023-04-18T13:49:19.710Z,15.55
2023-04-18T13:51:46.624Z,15.54
2023-04-18T13:54:15.590Z,15.46
2023-04-18T13:56:42.692Z,15.29
2023-04-18T13:59:09.465Z,15.05
2023-04-18T14:01:36.189Z,14.75
2023-04-18T14:04:03.204Z,14.51
2023-04-18T14:06:30.607Z,14.54
2023-04-18T14:08:57.376Z,14.64
2023-04-18T14:11:24.080Z,14.47
2023-04-18T14:13:50.726Z,14.51
2023-04-18T14:16:19.246Z,14.55
2023-04-18T14:18:46.267Z,14.71
2023-04-18T14:21:12.974Z,15.18
2023-04-18T14:23:39.592Z,15.17
2023-04-18T14:26:06.239Z,15.52
2023-04-18T14:28:32.982Z,15.47
2023-04-18T14:31:02.129Z,15.54
2023-04-18T14:33:29.225Z,15.42
2023-04-18T14:35:55.859Z,14.96
2023-04-18T14:38:22.524Z,14.42
2023-04-18T14:40:49.147Z,13.87
2023-04-18T14:43:16.037Z,14.06
2023-04-18T14:45:42.646Z,13.92
2023-04-18T14:48:10.284Z,13.82
2023-04-18T14:50:38.771Z,13.85
2023-04-18T14:53:06.256Z,13.58
2023-04-18T14:55:33.818Z,13.82
2023-04-18T14:58:01.081Z,13.73
2023-04-18T15:00:28.230Z,13.95
2023-04-18T15:02:55.052Z,13.81
2023-04-18T15:05:23.835Z,13.82
2023-04-18T15:07:51.836Z,13.48
2023-04-18T15:10:22.576Z,13.60
2023-04-18T15:12:51.041Z,13.55
2023-04-18T15:15:18.870Z,13.95
2023-04-18T15:17:45.476Z,13.67
2023-04-18T15:20:12.252Z,13.15
2023-04-18T15:22:38.921Z,12.46
2023-04-18T15:25:06.487Z,12.17
2023-04-18T15:27:33.282Z,12.25
2023-04-18T15:29:59.950Z,11.84
2023-04-18T15:32:26.723Z,11.55
2023-04-18T15:34:53.422Z,11.23
2023-04-18T15:37:21.507Z,10.97
2023-04-18T15:39:48.171Z,11.09
2023-04-18T15:42:14.861Z,10.81
2023-04-18T15:44:41.600Z,10.93
2023-04-18T15:47:08.350Z,11.18
2023-04-18T15:49:34.926Z,11.08
2023-04-18T15:52:02.589Z,11.11
2023-04-18T15:54:29.253Z,10.95
2023-04-18T15:56:56.157Z,10.95
2023-04-18T15:59:22.786Z,10.91
2023-04-18T16:01:49.425Z,10.67
2023-04-18T16:04:16.360Z,10.52
2023-04-18T16:06:43.291Z,10.52
2023-04-18T16:09:10.139Z,10.45
2023-04-18T16:11:36.739Z,10.28
2023-04-18T16:14:03.360Z,10.02
2023-04-18T16:16:30.146Z,10.07
2023-04-18T16:18:56.900Z,10.31
2023-04-18T16:21:23.569Z,10.37
2023-04-18T16:23:50.181Z,10.28
2023-04-18T16:26:16.870Z,10.44
2023-04-18T16:28:43.558Z,10.16
2023-04-18T16:31:10.562Z,10.00
2023-04-18T16:33:37.288Z,9.85
2023-04-18T16:36:04.587Z,9.83
2023-04-18T16:38:31.314Z,9.96
2023-04-18T16:40:58.819Z,9.86
2023-04-18T16:43:28.316Z,10.07
2023-04-18T16:45:57.459Z,10.17
2023-04-18T16:48:24.511Z,10.21
2023-04-18T16:50:51.389Z,10.38
2023-04-18T16:53:18.056Z,10.23
2023-04-18T16:55:44.672Z,10.30
2023-04-18T16:58:11.372Z,10.25
2023-04-18T17:00:38.677Z,10.14
2023-04-18T17:03:07.298Z,10.11
2023-04-18T17:05:34.111Z,10.04
2023-04-18T17:08:00.747Z,10.07
2023-04-18T17:10:29.293Z,10.07
2023-04-18T17:12:56.034Z,9.86
2023-04-18T17:15:22.936Z,9.92
2023-04-18T17:17:50.376Z,9.74
2023-04-18T17:20:17.976Z,9.71
2023-04-18T17:22:44.769Z,9.80
2023-04-18T17:25:11.427Z,9.70
2023-04-18T17:27:39.669Z,9.61
2023-04-18T17:30:07.261Z,9.69
2023-04-18T17:32:35.308Z,9.63
2023-04-18T17:35:04.849Z,9.77
2023-04-18T17:37:31.554Z,9.77
2023-04-18T17:40:00.324Z,9.82
2023-04-18T17:42:27.029Z,9.86
2023-04-18T17:44:53.835Z,9.90
2023-04-18T17:47:20.479Z,9.63
2023-04-18T17:49:47.075Z,9.51
2023-04-18T17:52:13.997Z,9.45
2023-04-18T17:54:41.141Z,9.61
2023-04-18T17:57:07.800Z,9.59
2023-04-18T17:59:37.644Z,9.50
2023-04-18T18:02:05.126Z,9.41
2023-04-18T18:04:31.954Z,9.59
2023-04-18T18:06:58.749Z,9.50
2023-04-18T18:09:25.494Z,9.45
2023-04-18T18:11:53.972Z,9.39
2023-04-18T18:14:22.061Z,9.45
2023-04-18T18:16:48.790Z,9.47
2023-04-18T18:19:16.652Z,9.45
2023-04-18T18:21:43.451Z,9.36
2023-04-18T18:24:10.788Z,9.35
2023-04-18T18:26:37.504Z,9.24
2023-04-18T18:29:11.110Z,9.11
2023-04-18T18:31:38.242Z,9.08
2023-04-18T18:34:05.586Z,9.15
2023-04-18T18:36:32.416Z,9.00
2023-04-18T18:38:59.112Z,9.02
2023-04-18T18:41:25.853Z,9.14
2023-04-18T18:43:52.574Z,9.23
2023-04-18T18:46:20.582Z,9.27
2023-04-18T18:48:48.522Z,9.33
2023-04-18T18:51:17.711Z,9.14
2023-04-18T18:53:44.257Z,9.09
2023-04-18T18:56:11.015Z,9.20
2023-04-18T18:58:39.170Z,9.15
2023-04-18T19:01:06.722Z,9.30
2023-04-18T19:03:34.726Z,9.15
2023-04-18T19:06:03.981Z,9.23
2023-04-18T19:08:31.045Z,9.32
2023-04-18T19:10:57.708Z,9.25
2023-04-18T19:13:24.479Z,9.34
2023-04-18T19:15:51.597Z,9.40
2023-04-18T19:18:19.985Z,9.32
2023-04-18T19:20:46.800Z,9.40
2023-04-18T19:23:13.501Z,9.40
2023-04-18T19:25:40.173Z,9.33
2023-04-18T19:28:06.881Z,9.15
2023-04-18T19:30:33.556Z,9.26
2023-04-18T19:33:00.429Z,9.33
2023-04-18T19:35:27.437Z,9.20
2023-04-18T19:38:01.290Z,9.46
2023-04-18T19:40:28.724Z,9.24
2023-04-18T19:42:55.511Z,9.50
2023-04-18T19:45:22.134Z,9.39
2023-04-18T19:47:48.990Z,9.37
2023-04-18T19:50:15.843Z,9.34
2023-04-18T19:52:42.446Z,9.20
2023-04-18T19:55:09.635Z,9.16
2023-04-18T19:57:39.889Z,9.23
2023-04-18T20:00:11.342Z,9.05
2023-04-18T20:02:38.855Z,9.21
2023-04-18T20:05:06.414Z,9.23
2023-04-18T20:07:33.534Z,9.22
2023-04-18T20:10:00.470Z,9.14
2023-04-18T20:12:27.198Z,9.18
2023-04-18T20:14:54.961Z,9.36
2023-04-18T20:17:21.745Z,9.31
2023-04-18T20:19:49.820Z,9.36
2023-04-18T20:22:17.143Z,9.31
2023-04-18T20:24:45.067Z,9.17
2023-04-18T20:27:11.925Z,9.24
2023-04-18T20:29:38.629Z,9.28
2023-04-18T20:32:05.807Z,9.36
2023-04-18T20:34:32.592Z,9.27
2023-04-18T20:37:00.032Z,9.24
2023-04-18T20:39:28.047Z,9.29
2023-04-18T20:41:57.804Z,9.29
2023-04-18T20:44:24.942Z,9.34
2023-04-18T20:46:53.518Z,9.37
2023-04-18T20:49:20.317Z,9.29
2023-04-18T20:51:46.928Z,9.18
2023-04-18T20:54:13.776Z,9.18
2023-04-18T20:56:40.622Z,9.17
2023-04-18T20:59:07.245Z,9.28
2023-04-18T21:01:35.443Z,9.22
2023-04-18T21:04:03.629Z,9.27
2023-04-18T21:06:31.019Z,9.16
2023-04-18T21:08:57.691Z,9.23
2023-04-18T21:11:24.404Z,9.10
2023-04-18T21:13:50.994Z,9.08
2023-04-18T21:16:17.768Z,9.23
2023-04-18T21:18:44.486Z,9.28
2023-04-18T21:21:11.880Z,9.27
2023-04-18T21:23:42.892Z,9.30
2023-04-18T21:26:15.454Z,9.28
2023-04-18T21:29:01.563Z,9.26
2023-04-18T21:31:29.823Z,9.23
2023-04-18T21:33:57.214Z,9.29
2023-04-18T21:36:24.475Z,9.23
2023-04-18T21:38:54.898Z,9.22
2023-04-18T21:41:21.799Z,9.28
2023-04-18T21:43:48.732Z,9.27
2023-04-18T21:46:15.689Z,9.17
2023-04-18T21:48:43.406Z,9.05
2023-04-18T21:51:10.565Z,9.06
2023-04-18T21:53:40.516Z,8.87
2023-04-18T21:56:07.851Z,8.85
2023-04-18T21:58:34.563Z,8.89
2023-04-18T22:01:01.361Z,9.07
2023-04-18T22:03:28.775Z,9.00
2023-04-18T22:05:56.693Z,8.97
2023-04-18T22:08:26.322Z,9.13
2023-04-18T22:10:54.980Z,9.02
2023-04-18T22:13:25.655Z,9.22
2023-04-18T22:15:52.314Z,9.08
2023-04-18T22:18:19.064Z,9.01
2023-04-18T22:20:46.932Z,9.11
2023-04-18T22:23:13.777Z,9.06
2023-04-18T22:25:40.688Z,9.03
2023-04-18T22:28:07.337Z,8.90
2023-04-18T22:30:34.094Z,8.89
2023-04-18T22:33:00.837Z,8.90
2023-04-18T22:35:27.523Z,8.79
2023-04-18T22:37:55.599Z,8.99
2023-04-18T22:40:22.274Z,9.10
2023-04-18T22:42:49.043Z,8.95
2023-04-18T22:45:15.774Z,8.96
2023-04-18T22:47:42.540Z,9.12
2023-04-18T22:50:09.291Z,9.10
2023-04-18T22:52:35.981Z,9.05
2023-04-18T22:55:03.073Z,8.93
2023-04-18T22:57:29.754Z,8.99
2023-04-18T22:59:56.513Z,9.09
2023-04-18T23:02:23.420Z,9.21
2023-04-18T23:04:50.634Z,9.01
2023-04-18T23:07:17.465Z,9.01
2023-04-18T23:09:44.060Z,8.98
2023-04-18T23:12:10.689Z,8.86
2023-04-18T23:14:37.667Z,8.82
2023-04-18T23:17:04.402Z,8.97
2023-04-18T23:19:30.970Z,8.92
2023-04-18T23:21:57.706Z,8.81
2023-04-18T23:24:24.429Z,8.81
2023-04-18T23:26:51.140Z,8.80
2023-04-18T23:29:17.821Z,8.86
2023-04-18T23:31:44.512Z,8.77
2023-04-18T23:34:11.192Z,8.82
2023-04-18T23:36:40.552Z,8.79
2023-04-18T23:39:08.645Z,8.97
2023-04-18T23:41:35.320Z,8.98
2023-04-18T23:44:02.319Z,8.98
2023-04-18T23:46:29.000Z,8.87
2023-04-18T23:48:55.601Z,8.88
2023-04-18T23:51:22.507Z,8.78
2023-04-18T23:53:49.115Z,8.90
2023-04-18T23:56:15.975Z,8.81
2023-04-18T23:58:42.685Z,8.87
